Time;durP1;ratioP1;P1;durP2;ratioP2;P2;SDS_P1;SDS_P2;PMS_P1;PMS_P2;Temp;Humidity;BMP_temperature;BMP_pressure;BME280_temperature;BME280_humidity;BME280_pressure;Samples;Min_cycle;Max_cycle;Signal;HPM_P1;HPM_P2
2021/06/28 00:01:11;;;;;;;5.43;2.22;;;14.00;99.90;;;13.63;95.94;100913.78;4135888;28;20510;-68
2021/06/28 00:03:12;;;;;;;3.92;1.65;;;14.00;99.90;;;13.68;96.48;100911.44;4134272;28;20026;-68
2021/06/28 00:05:17;;;;;;;2.35;1.40;;;14.00;99.90;;;13.65;96.90;100909.97;4135780;28;20053;-68
2021/06/28 00:07:18;;;;;;;3.80;1.38;;;14.10;99.90;;;13.71;97.14;100909.28;4134631;28;20030;-68
2021/06/28 00:09:19;;;;;;;3.10;1.30;;;14.10;99.90;;;13.77;97.44;100905.09;4135831;28;20092;-68
2021/06/28 00:11:20;;;;;;;2.33;1.30;;;14.10;99.90;;;13.85;96.68;100900.63;4134447;28;20033;-68
2021/06/28 00:13:22;;;;;;;4.78;1.80;;;14.10;99.90;;;13.85;96.65;100899.78;4134385;28;20461;-68
2021/06/28 00:15:32;;;;;;;3.88;1.25;;;14.20;99.90;;;13.86;97.08;100888.16;4136000;28;20437;-68
2021/06/28 00:17:33;;;;;;;4.22;1.80;;;14.20;99.90;;;13.82;97.22;100894.84;4134235;28;20105;-68
2021/06/28 00:19:33;;;;;;;3.47;1.55;;;14.20;99.90;;;13.87;97.60;100887.16;4134401;28;20426;-68
2021/06/28 00:21:38;;;;;;;2.92;1.60;;;14.20;99.90;;;13.79;97.45;100880.09;4118140;28;20062;-68
2021/06/28 00:23:39;;;;;;;;;;;14.20;99.90;;;13.80;98.18;100888.84;4134948;28;20039;-68
2021/06/28 00:25:40;;;;;;;4.97;1.58;;;14.30;99.90;;;13.80;98.97;100883.56;4135724;28;20284;-68
2021/06/28 00:27:43;;;;;;;7.88;1.90;;;14.20;99.90;;;13.89;98.58;100879.84;4135620;28;20034;-68
2021/06/28 00:29:44;;;;;;;2.78;1.30;;;14.30;99.90;;;13.82;99.28;100870.97;4134311;28;20058;-68
2021/06/28 00:31:46;;;;;;;2.95;1.45;;;14.30;99.90;;;13.90;99.79;100881.53;4134095;28;20026;-68
2021/06/28 00:33:47;;;;;;;4.53;1.90;;;14.30;99.90;;;13.84;99.55;100872.44;4135677;28;20056;-67
2021/06/28 00:35:49;;;;;;;6.38;1.80;;;14.30;99.90;;;13.90;99.77;100868.25;4134562;28;20027;-67
2021/06/28 00:37:50;;;;;;;2.22;1.27;;;14.30;99.90;;;13.96;99.65;100886.13;4150616;28;20038;-68
2021/06/28 00:39:51;;;;;;;3.58;1.33;;;14.30;99.90;;;13.95;99.66;100873.06;4150670;28;20030;-67
2021/06/28 00:41:52;;;;;;;2.47;1.27;;;14.30;99.90;;;13.94;99.46;100869.56;4150353;28;20112;-67
2021/06/28 00:43:53;;;;;;;4.30;1.30;;;14.30;99.90;;;13.89;99.42;100861.28;4138029;28;20030;-68
2021/06/28 00:45:54;;;;;;;3.30;1.27;;;14.30;99.90;;;13.93;99.20;100861.78;4137555;28;20521;-68
2021/06/28 00:48:04;;;;;;;4.22;2.08;;;14.30;99.90;;;13.84;99.77;100875.09;4137112;28;20030;-68
2021/06/28 00:50:06;;;;;;;8.43;2.03;;;14.30;99.90;;;13.89;100.00;100879.06;4138689;28;20109;-68
2021/06/28 00:52:08;;;;;;;5.45;1.67;;;14.30;99.90;;;13.82;100.00;100876.28;4137411;28;20027;-68
2021/06/28 00:54:09;;;;;;;1.90;1.20;;;14.20;99.90;;;13.85;100.00;100881.22;4138466;28;20482;-68
2021/06/28 00:56:10;;;;;;;4.35;1.48;;;14.30;99.90;;;13.92;100.00;100868.91;4138574;28;20034;-68
2021/06/28 00:58:12;;;;;;;7.03;1.45;;;14.30;99.90;;;13.90;100.00;100865.59;4137078;28;20120;-68
2021/06/28 01:00:14;;;;;;;3.13;1.20;;;14.30;99.90;;;13.89;100.00;100876.41;4137273;28;20097;-67
2021/06/28 01:02:15;;;;;;;3.03;1.10;;;14.30;99.90;;;13.92;99.84;100876.06;4137942;28;20398;-67
2021/06/28 01:04:16;;;;;;;3.85;1.08;;;14.30;99.90;;;13.95;99.80;100871.22;4138498;28;20529;-68
2021/06/28 01:06:17;;;;;;;8.07;1.25;;;14.30;99.90;;;13.95;99.85;100876.50;4153379;28;20032;-68
2021/06/28 01:08:18;;;;;;;3.67;1.42;;;14.30;99.90;;;13.84;100.00;100871.59;4138376;28;20066;-68
2021/06/28 01:10:20;;;;;;;4.00;1.42;;;14.30;99.90;;;13.89;100.00;100877.22;4138320;28;20505;-68
2021/06/28 01:12:21;;;;;;;4.68;1.30;;;14.30;99.90;;;13.88;100.00;100880.03;4137291;28;20031;-68
2021/06/28 01:14:24;;;;;;;5.70;1.70;;;14.20;99.90;;;13.78;100.00;100877.59;4138398;28;20056;-68
2021/06/28 01:16:25;;;;;;;6.30;1.70;;;14.30;99.90;;;13.83;100.00;100884.03;4136848;28;20022;-68
2021/06/28 01:18:26;;;;;;;2.47;1.48;;;14.20;99.90;;;13.86;100.00;100885.50;4136995;28;20073;-67
2021/06/28 01:20:29;;;;;;;3.80;1.30;;;14.30;99.90;;;13.90;100.00;100892.13;4137147;28;20457;-68
2021/06/28 01:22:34;;;;;;;3.72;1.40;;;14.30;99.90;;;13.86;100.00;100869.59;4138202;28;20033;-67
2021/06/28 01:24:36;;;;;;;10.23;1.70;;;14.30;99.90;;;13.88;100.00;100875.56;4136944;28;20116;-67
2021/06/28 01:26:37;;;;;;;7.93;1.75;;;14.30;99.90;;;13.88;100.00;100875.56;4136723;28;20093;-68
2021/06/28 01:28:40;;;;;;;4.57;1.60;;;14.30;99.90;;;13.97;100.00;100873.69;4136960;28;20522;-68
2021/06/28 01:30:41;;;;;;;4.65;1.35;;;14.30;99.90;;;14.01;100.00;100870.50;4138349;28;20433;-68
2021/06/28 01:32:44;;;;;;;3.13;1.60;;;14.30;99.90;;;14.00;100.00;100862.75;4137728;28;20029;-68
2021/06/28 01:34:45;;;;;;;6.40;1.98;;;14.30;99.90;;;13.99;100.00;100861.91;4136821;28;20413;-68
2021/06/28 01:36:46;;;;;;;3.72;1.50;;;14.30;99.90;;;14.00;100.00;100855.63;4138420;28;20054;-67
2021/06/28 01:38:48;;;;;;;3.45;1.58;;;14.30;99.90;;;14.01;100.00;100856.44;4136786;28;20077;-68
2021/06/28 01:40:51;;;;;;;6.35;1.77;;;14.30;99.90;;;14.01;100.00;100851.94;4152668;28;20552;-67
2021/06/28 01:42:52;;;;;;;5.18;1.98;;;14.30;99.90;;;13.97;100.00;100832.09;4136574;28;20023;-67
2021/06/28 01:44:54;;;;;;;5.35;2.33;;;14.40;99.90;;;14.05;100.00;100824.06;4153003;28;20080;-67
2021/06/28 01:46:55;;;;;;;5.05;1.50;;;14.40;99.90;;;14.09;100.00;100830.69;4152814;28;20030;-67
2021/06/28 01:48:56;;;;;;;4.53;1.60;;;14.40;99.90;;;13.99;100.00;100821.28;4136418;28;20105;-67
2021/06/28 01:50:57;;;;;;;5.05;1.65;;;14.40;99.90;;;14.09;100.00;100851.09;4136592;28;20030;-67
2021/06/28 01:53:00;;;;;;;3.95;2.05;;;14.40;99.90;;;14.08;100.00;100855.56;4137829;28;20081;-67
2021/06/28 01:55:03;;;;;;;2.60;1.60;;;14.40;99.90;;;13.97;100.00;100858.63;4136780;28;20033;-67
2021/06/28 01:57:05;;;;;;;4.85;1.45;;;14.40;99.90;;;13.99;100.00;100847.81;4136584;28;20026;-67
2021/06/28 01:59:06;;;;;;;4.93;1.60;;;14.40;99.90;;;14.07;100.00;100859.19;4136367;28;20490;-67
2021/06/28 02:01:07;;;;;;;2.70;2.00;;;14.40;99.90;;;14.11;100.00;100857.03;4152704;28;20033;-67
2021/06/28 02:03:12;;;;;;;3.17;1.50;;;14.40;99.90;;;14.08;100.00;100860.03;4137373;28;20031;-67
2021/06/28 02:05:13;;;;;;;5.10;2.08;;;14.40;99.90;;;14.07;100.00;100853.91;4136382;28;20034;-67
2021/06/28 02:07:14;;;;;;;4.20;2.10;;;14.40;99.90;;;14.00;100.00;100839.69;4137435;28;20548;-68
2021/06/28 02:09:16;;;;;;;5.05;2.03;;;14.40;99.90;;;14.02;100.00;100848.31;4136364;28;20041;-68
2021/06/28 02:11:17;;;;;;;4.38;1.50;;;14.40;99.90;;;14.07;100.00;100839.81;4137589;28;20034;-68
2021/06/28 02:13:20;;;;;;;5.63;1.63;;;14.40;99.90;;;14.00;100.00;100850.31;4136385;28;20026;-68
2021/06/28 02:15:25;;;;;;;3.40;1.85;;;14.40;99.90;;;13.92;100.00;100850.34;4152261;28;20096;-68
2021/06/28 02:17:26;;;;;;;7.53;2.33;;;14.40;99.90;;;14.03;100.00;100857.09;4135944;28;20030;-68
2021/06/28 02:19:27;;;;;;;7.93;1.88;;;14.40;99.90;;;13.94;100.00;100845.72;4137471;28;20034;-68
2021/06/28 02:21:28;;;;;;;4.28;1.60;;;14.40;99.90;;;14.06;100.00;100854.91;4137493;28;20501;-68
2021/06/28 02:23:35;;;;;;;3.30;1.70;;;14.40;99.90;;;14.03;100.00;100849.13;4135956;28;20019;-68
2021/06/28 02:25:35;;;;;;;7.25;1.85;;;14.40;99.90;;;14.02;100.00;100844.81;4168475;28;20029;-68
2021/06/28 02:27:41;;;;;;;3.50;1.60;;;14.40;99.90;;;14.10;100.00;100845.59;4137278;28;20026;-68
2021/06/28 02:29:42;;;;;;;4.05;1.60;;;14.40;99.90;;;14.06;100.00;100846.97;4137154;28;20030;-68
2021/06/28 02:31:44;;;;;;;3.72;1.50;;;14.40;99.90;;;14.04;100.00;100848.94;4137155;28;20088;-68
2021/06/28 02:33:46;;;;;;;4.85;1.92;;;14.40;99.90;;;14.05;100.00;100855.91;4137237;28;20053;-67
2021/06/28 02:35:47;;;;;;;3.97;1.65;;;14.40;99.90;;;14.01;100.00;100849.28;4137176;28;20503;-67
2021/06/28 02:37:48;;;;;;;6.25;2.42;;;14.40;99.90;;;14.04;100.00;100858.72;4137168;28;20045;-68
2021/06/28 02:39:49;;;;;;;4.53;1.80;;;14.40;99.90;;;14.04;100.00;100856.06;4135952;28;20027;-67
2021/06/28 02:41:50;;;;;;;9.48;2.50;;;14.40;99.90;;;14.01;100.00;100853.78;4136888;28;20490;-68
2021/06/28 02:43:53;;;;;;;3.47;1.70;;;14.40;99.90;;;13.99;100.00;100845.16;4136909;28;20037;-67
2021/06/28 02:45:54;;;;;;;2.85;2.03;;;14.40;99.90;;;13.92;100.00;100850.34;4136820;28;20026;-67
2021/06/28 02:47:55;;;;;;;5.25;1.70;;;14.30;99.90;;;14.00;100.00;100847.66;4136621;28;20037;-67
2021/06/28 02:49:56;;;;;;;3.45;1.42;;;14.30;99.90;;;14.04;100.00;100853.41;4135912;28;20064;-67
2021/06/28 02:51:57;;;;;;;2.65;1.60;;;14.40;99.90;;;13.94;100.00;100837.75;4137040;28;20038;-67
2021/06/28 02:53:58;;;;;;;2.05;1.27;;;14.30;99.90;;;13.94;100.00;100848.34;4135525;28;20540;-67
2021/06/28 02:56:12;;;;;;;2.63;1.50;;;14.30;99.90;;;13.96;100.00;100853.47;4136757;28;20492;-67
2021/06/28 02:58:15;;;;;;;3.17;1.65;;;14.30;99.90;;;13.91;100.00;100853.19;4151704;28;20038;-67
2021/06/28 03:00:18;;;;;;;3.50;1.48;;;14.30;99.90;;;13.93;100.00;100846.69;4135733;28;20404;-68
2021/06/28 03:02:19;;;;;;;3.97;1.73;;;14.30;99.90;;;13.97;100.00;100834.75;4136318;28;20030;-67
2021/06/28 03:04:20;;;;;;;7.13;2.08;;;14.30;99.90;;;13.94;100.00;100840.41;4136822;28;20041;-68
2021/06/28 03:06:21;;;;;;;5.78;2.03;;;14.30;99.90;;;13.96;100.00;100841.03;4136573;28;20029;-68
2021/06/28 03:08:23;;;;;;;3.85;1.85;;;14.30;99.90;;;13.92;100.00;100845.03;4135552;28;20426;-67
2021/06/28 03:10:24;;;;;;;5.65;2.38;;;14.30;99.90;;;13.86;100.00;100829.81;4136522;28;20109;-67
2021/06/28 03:12:25;;;;;;;4.63;2.33;;;14.30;99.90;;;13.89;100.00;100837.44;4135488;28;20431;-67
2021/06/28 03:14:26;;;;;;;7.00;2.33;;;14.30;99.90;;;13.90;100.00;100833.78;4136660;28;20029;-67
2021/06/28 03:16:26;;;;;;;3.53;2.40;;;14.30;99.90;;;13.82;100.00;100825.91;4136294;28;20066;-67
2021/06/28 03:18:27;;;;;;;7.97;2.22;;;14.30;99.90;;;13.86;100.00;100830.66;4136360;28;20128;-67
2021/06/28 03:20:28;;;;;;;7.55;2.22;;;14.30;99.90;;;13.92;100.00;100829.13;4136474;28;20441;-67
2021/06/28 03:22:29;;;;;;;5.47;1.80;;;14.30;99.90;;;13.94;100.00;100827.13;4136411;28;20162;-67
2021/06/28 03:24:30;;;;;;;4.80;1.83;;;14.30;99.90;;;13.87;100.00;100820.88;4136323;28;20037;-67
2021/06/28 03:26:31;;;;;;;3.83;1.80;;;14.30;99.90;;;13.85;100.00;100818.41;4136259;28;20026;-67
2021/06/28 03:28:33;;;;;;;4.35;1.70;;;14.30;99.90;;;13.83;100.00;100808.97;4135204;28;20046;-67
2021/06/28 03:30:34;;;;;;;3.50;1.70;;;14.30;99.90;;;13.86;100.00;100816.56;4151480;28;20034;-67
2021/06/28 03:32:36;;;;;;;4.55;1.85;;;14.30;99.90;;;13.87;100.00;100794.38;4134839;28;20030;-67
2021/06/28 03:34:37;;;;;;;5.93;2.30;;;14.30;99.90;;;13.92;100.00;100809.75;4134959;28;20022;-67
2021/06/28 03:36:38;;;;;;;6.70;2.10;;;14.30;99.90;;;13.89;100.00;100808.25;4136299;28;20034;-67
2021/06/28 03:38:39;;;;;;;3.75;2.22;;;14.20;99.90;;;13.89;100.00;100816.22;4136252;28;20066;-67
2021/06/28 03:40:40;;;;;;;2.70;1.90;;;14.20;99.90;;;13.79;100.00;100811.16;4134781;28;20050;-67
2021/06/28 03:42:41;;;;;;;9.20;2.08;;;14.20;99.90;;;13.61;100.00;100796.50;4134903;28;20061;-67
2021/06/28 03:44:42;;;;;;;4.25;1.83;;;14.10;99.90;;;13.74;100.00;100810.84;4134986;28;20026;-67
2021/06/28 03:46:42;;;;;;;2.97;1.80;;;14.20;99.90;;;13.80;100.00;100788.94;4150956;28;20101;-67
2021/06/28 03:48:44;;;;;;;4.82;2.13;;;14.20;99.90;;;13.82;100.00;100804.69;4134884;28;20030;-67
2021/06/28 03:50:46;;;;;;;3.55;1.92;;;14.10;99.90;;;13.80;100.00;100794.22;4134925;28;20031;-67
2021/06/28 03:52:47;;;;;;;2.78;2.13;;;14.20;99.90;;;13.84;100.00;100792.88;4134887;28;20027;-67
2021/06/28 03:54:48;;;;;;;5.65;2.60;;;14.20;99.90;;;13.84;100.00;100797.38;4134922;28;20037;-67
2021/06/28 03:56:49;;;;;;;2.75;2.00;;;14.20;99.90;;;13.86;100.00;100793.53;4136209;28;20030;-67
2021/06/28 03:58:49;;;;;;;10.25;2.80;;;14.20;99.90;;;13.87;100.00;100794.38;4134737;28;20073;-67
2021/06/28 04:00:50;;;;;;;5.90;1.98;;;14.20;99.90;;;13.79;100.00;100799.72;4134322;28;20141;-68
2021/06/28 04:02:53;;;;;;;4.10;2.10;;;14.20;99.90;;;13.84;100.00;100790.25;4134528;28;20109;-67
2021/06/28 04:04:54;;;;;;;6.50;2.20;;;14.20;99.90;;;13.79;100.00;100789.94;4135086;28;20045;-67
2021/06/28 04:06:55;;;;;;;4.40;2.40;;;14.20;99.90;;;13.85;100.00;100783.13;4134746;28;20034;-67
2021/06/28 04:08:56;;;;;;;4.75;1.88;;;14.20;99.90;;;13.81;100.00;100792.41;4135688;28;20434;-67
2021/06/28 04:10:58;;;;;;;3.20;2.08;;;14.20;99.90;;;13.72;100.00;100781.03;4136061;28;20153;-67
2021/06/28 04:12:59;;;;;;;2.58;2.00;;;14.20;99.90;;;13.72;100.00;100775.75;4134707;28;20121;-67
2021/06/28 04:15:00;;;;;;;5.65;2.10;;;14.20;99.90;;;13.81;100.00;100787.09;4150814;28;20026;-67
2021/06/28 04:17:01;;;;;;;4.15;2.10;;;14.20;99.90;;;13.82;100.00;100779.00;4135388;28;20114;-67
2021/06/28 04:19:02;;;;;;;2.45;1.75;;;14.20;99.90;;;13.84;100.00;100781.44;4138891;28;20117;-67
2021/06/28 04:21:03;;;;;;;3.03;1.60;;;14.20;99.90;;;13.77;100.00;100775.19;4139211;28;20402;-67
2021/06/28 04:23:05;;;;;;;3.60;2.30;;;14.20;99.90;;;13.73;100.00;100779.22;4138114;28;20034;-67
2021/06/28 04:25:10;;;;;;;10.20;2.70;;;14.20;99.90;;;13.61;100.00;100764.72;4137829;28;20633;-67
2021/06/28 04:27:11;;;;;;;4.68;2.75;;;14.10;99.90;;;13.77;100.00;100783.16;4138027;28;20038;-67
2021/06/28 04:29:11;;;;;;;5.25;2.55;;;14.20;99.90;;;13.72;100.00;100774.91;4139000;28;20553;-67
2021/06/28 04:31:12;;;;;;;5.60;2.40;;;14.10;99.90;;;13.73;100.00;100773.91;4138714;28;20077;-67
2021/06/28 04:33:13;;;;;;;2.78;2.28;;;14.10;99.90;;;13.71;100.00;100782.03;4138974;28;20030;-67
2021/06/28 04:35:24;;;;;;;4.22;2.65;;;14.10;99.90;;;13.72;100.00;100791.63;4139125;28;20065;-67
2021/06/28 04:37:26;;;;;;;2.42;1.70;;;14.10;99.90;;;13.77;100.00;100781.31;4139122;28;20118;-67
2021/06/28 04:39:27;;;;;;;3.85;2.10;;;14.20;99.90;;;13.95;100.00;100786.34;4138980;28;20535;-67
2021/06/28 04:41:27;;;;;;;5.18;1.60;;;14.20;99.90;;;13.87;100.00;100778.44;4138766;28;20109;-67
2021/06/28 04:43:28;;;;;;;3.70;1.95;;;14.20;99.90;;;13.87;100.00;100786.41;4138670;28;20035;-67
2021/06/28 04:45:29;;;;;;;5.50;2.10;;;14.20;99.90;;;13.91;100.00;100776.28;4138818;28;20509;-67
2021/06/28 04:47:30;;;;;;;4.05;2.00;;;14.20;99.90;;;13.85;100.00;100761.91;4138159;28;20061;-67
2021/06/28 04:49:31;;;;;;;3.85;2.47;;;14.30;99.90;;;13.85;100.00;100775.16;4137578;28;20113;-67
2021/06/28 04:51:33;;;;;;;4.43;1.85;;;14.20;99.90;;;13.87;100.00;100770.50;4138750;28;20508;-67
2021/06/28 04:53:34;;;;;;;5.50;2.42;;;14.30;99.90;;;13.95;100.00;100762.47;4137526;28;20026;-67
2021/06/28 04:55:35;;;;;;;5.63;2.20;;;14.30;99.90;;;13.91;100.00;100763.84;4137344;28;20061;-67
2021/06/28 04:57:35;;;;;;;2.70;1.98;;;14.30;99.90;;;13.86;100.00;100761.72;4138680;28;20019;-67
2021/06/28 04:59:36;;;;;;;3.80;2.13;;;14.30;99.90;;;13.92;100.00;100765.47;4137345;28;20030;-67
2021/06/28 05:01:37;;;;;;;3.80;2.05;;;14.30;99.90;;;13.91;100.00;100750.59;4138201;28;20030;-67
2021/06/28 05:03:38;;;;;;;4.25;2.05;;;14.30;99.90;;;13.96;100.00;100750.88;4137330;28;20026;-67
2021/06/28 05:05:39;;;;;;;4.75;2.53;;;14.30;99.90;;;13.90;100.00;100746.28;4138469;28;20485;-67
2021/06/28 05:07:44;;;;;;;5.32;2.08;;;14.30;99.90;;;13.92;100.00;100744.25;4137234;28;20022;-67
2021/06/28 05:09:46;;;;;;;4.95;2.70;;;14.30;99.90;;;13.90;100.00;100746.28;4153140;28;20022;-67
2021/06/28 05:11:47;;;;;;;3.22;2.15;;;14.30;99.90;;;14.08;100.00;100752.09;4120989;28;20393;-67
2021/06/28 05:13:48;;;;;;;4.57;2.70;;;14.40;99.90;;;14.23;100.00;100757.44;4137294;28;20505;-67
2021/06/28 05:15:48;;;;;;;5.35;2.50;;;14.40;99.90;;;14.22;99.85;100750.47;4138370;28;20029;-67
2021/06/28 05:17:49;;;;;;;3.53;1.60;;;14.50;99.90;;;14.16;100.00;100749.38;4153252;28;20018;-67
2021/06/28 05:19:51;;;;;;;4.15;2.20;;;14.60;99.90;;;14.08;100.00;100738.84;4137158;28;20057;-67
2021/06/28 05:21:52;;;;;;;4.63;2.38;;;14.60;99.90;;;14.09;100.00;100756.41;4137024;28;20449;-67
2021/06/28 05:23:53;;;;;;;9.05;3.58;;;14.60;99.90;;;14.28;100.00;100750.59;4138262;28;20027;-67
2021/06/28 05:25:55;;;;;;;2.85;1.85;;;14.70;99.90;;;14.31;100.00;100760.84;4138280;28;20026;-67
2021/06/28 05:27:58;;;;;;;2.10;1.90;;;14.80;99.90;;;14.29;100.00;100746.94;4138034;28;20037;-67
2021/06/28 05:30:00;;;;;;;3.67;2.58;;;14.80;99.90;;;14.35;100.00;100761.34;4135428;28;20023;-67
2021/06/28 05:32:01;;;;;;;3.90;2.40;;;14.80;99.90;;;14.29;100.00;100754.91;4137967;28;20109;-68
2021/06/28 05:34:01;;;;;;;3.97;2.78;;;14.90;99.90;;;14.33;100.00;100766.03;4136965;28;20054;-68
2021/06/28 05:36:03;;;;;;;3.75;2.75;;;14.90;99.90;;;14.35;100.00;100770.16;4138227;28;20061;-68
2021/06/28 05:38:04;;;;;;;4.47;2.75;;;14.90;99.90;;;14.43;100.00;100760.44;4137919;28;20117;-67
2021/06/28 05:40:07;;;;;;;4.53;2.50;;;14.90;99.90;;;14.50;100.00;100753.41;4138226;28;20030;-68
2021/06/28 05:42:08;;;;;;;6.97;2.45;;;15.00;99.90;;;14.49;100.00;100759.72;4136434;28;20054;-68
2021/06/28 05:44:09;;;;;;;7.93;3.47;;;15.00;99.90;;;14.53;100.00;100759.19;4137906;28;20097;-68
2021/06/28 05:46:13;;;;;;;5.88;2.47;;;15.00;99.90;;;14.47;100.00;100767.03;4152396;28;20044;-68
2021/06/28 05:48:14;;;;;;;5.80;2.90;;;15.00;99.90;;;14.43;100.00;100768.41;4138031;28;20049;-68
2021/06/28 05:50:18;;;;;;;4.57;2.50;;;15.00;99.90;;;14.42;100.00;100759.63;4137942;28;20502;-68
2021/06/28 05:52:20;;;;;;;4.20;2.70;;;15.00;99.90;;;14.41;100.00;100763.28;4137839;28;20034;-68
2021/06/28 05:54:21;;;;;;;5.60;3.13;;;15.00;99.90;;;14.34;100.00;100754.38;4137578;28;20096;-68
2021/06/28 05:56:22;;;;;;;4.22;3.15;;;15.00;99.90;;;14.43;100.00;100755.97;4137801;28;20548;-68
2021/06/28 05:58:24;;;;;;;6.40;2.67;;;15.00;99.90;;;14.49;100.00;100754.41;4137917;28;20026;-67
2021/06/28 06:00:25;;;;;;;13.43;3.50;;;15.10;99.90;;;14.43;100.00;100749.81;4137673;28;20113;-68
2021/06/28 06:02:27;;;;;;;5.85;2.90;;;15.20;99.90;;;14.55;100.00;100746.56;4135999;28;20026;-68
2021/06/28 06:04:27;;;;;;;4.18;2.63;;;15.20;99.90;;;14.67;100.00;100749.56;4137538;28;20038;-68
2021/06/28 06:06:28;;;;;;;5.97;2.97;;;15.30;99.90;;;14.64;100.00;100755.25;4136481;28;20081;-68
2021/06/28 06:08:29;;;;;;;4.55;2.40;;;15.30;99.90;;;14.61;100.00;100758.28;4137469;28;20097;-67
2021/06/28 06:10:30;;;;;;;8.38;2.90;;;15.30;99.90;;;14.65;100.00;100770.19;4137357;28;20490;-67
2021/06/28 06:12:31;;;;;;;3.83;2.50;;;15.30;99.90;;;14.61;100.00;100761.75;4137727;28;20034;-67
2021/06/28 06:14:32;;;;;;;5.28;2.25;;;15.30;99.90;;;14.57;100.00;100760.50;4136363;28;20022;-68
2021/06/28 06:16:33;;;;;;;5.35;2.80;;;15.30;99.90;;;14.71;100.00;100762.31;4137144;28;20092;-68
2021/06/28 06:18:34;;;;;;;3.95;2.47;;;15.30;99.90;;;14.55;100.00;100774.91;4136124;28;20490;-68
2021/06/28 06:20:35;;;;;;;4.57;2.28;;;15.30;99.90;;;14.75;98.71;100768.94;4137471;28;20034;-67
2021/06/28 06:22:36;;;;;;;5.20;2.58;;;15.30;99.90;;;14.69;100.00;100768.84;4137357;28;20038;-68
2021/06/28 06:24:37;;;;;;;4.47;2.65;;;15.30;99.90;;;14.80;99.41;100773.69;4137218;28;20042;-68
2021/06/28 06:26:38;;;;;;;3.30;2.40;;;15.30;99.90;;;14.78;98.95;100768.53;4137065;28;20569;-67
2021/06/28 06:28:39;;;;;;;12.13;2.95;;;15.30;99.90;;;14.63;99.81;100754.47;4137155;28;20035;-68
2021/06/28 06:30:42;;;;;;;5.72;2.70;;;15.30;99.90;;;14.68;100.00;100759.22;4137240;28;20041;-67
2021/06/28 06:32:43;;;;;;;5.28;2.58;;;15.30;99.90;;;14.67;100.00;100762.84;4136806;28;20061;-67
2021/06/28 06:34:44;;;;;;;7.90;2.40;;;15.20;99.90;;;14.60;100.00;100764.59;4136937;28;20027;-68
2021/06/28 06:36:45;;;;;;;3.90;2.25;;;15.20;99.90;;;14.65;100.00;100768.38;4136059;28;20058;-67
2021/06/28 06:38:46;;;;;;;3.95;2.38;;;15.20;99.90;;;14.62;100.00;100759.94;4135830;28;20030;-68
2021/06/28 06:40:48;;;;;;;4.97;2.40;;;15.20;99.90;;;14.60;100.00;100761.94;4136336;28;20580;-67
2021/06/28 06:42:51;;;;;;;5.13;2.90;;;15.10;99.90;;;14.69;100.00;100758.22;4136614;28;20026;-67
2021/06/28 06:44:52;;;;;;;5.85;2.78;;;15.20;99.90;;;14.56;100.00;100763.31;4137235;28;20396;-67
2021/06/28 06:46:53;;;;;;;4.07;2.35;;;15.10;99.90;;;14.52;100.00;100767.31;4135390;28;20031;-68
2021/06/28 06:48:54;;;;;;;4.38;2.10;;;15.00;99.90;;;14.51;100.00;100771.00;4151639;28;20026;-68
2021/06/28 06:50:56;;;;;;;5.80;2.75;;;15.00;99.90;;;14.50;100.00;100774.66;4136778;28;20022;-68
2021/06/28 06:52:57;;;;;;;3.35;2.45;;;15.00;99.90;;;14.50;100.00;100786.09;4135661;28;20034;-67
2021/06/28 06:54:58;;;;;;;7.43;2.80;;;15.00;99.90;;;14.49;100.00;100773.00;4136848;28;20026;-68
2021/06/28 06:56:59;;;;;;;4.57;2.58;;;15.00;99.90;;;14.46;100.00;100762.72;4136685;28;20401;-67
2021/06/28 06:59:00;;;;;;;4.00;2.30;;;15.00;99.90;;;14.50;100.00;100780.78;4135469;28;20046;-67
2021/06/28 07:01:01;;;;;;;3.75;3.22;;;15.00;99.90;;;14.47;100.00;100765.22;4136345;28;20030;-67
2021/06/28 07:03:02;;;;;;;3.33;3.00;;;15.00;99.90;;;14.60;100.00;100780.53;4135561;28;20397;-68
2021/06/28 07:05:04;;;;;;;3.55;2.38;;;15.00;99.90;;;14.54;100.00;100758.19;4136590;28;20445;-67
2021/06/28 07:07:05;;;;;;;3.78;2.40;;;15.00;99.90;;;14.63;100.00;100781.00;4135355;28;20054;-67
2021/06/28 07:09:07;;;;;;;4.50;2.92;;;15.10;99.90;;;14.67;100.00;100778.78;4136449;28;20037;-67
2021/06/28 07:11:12;;;;;;;3.58;3.10;;;15.10;99.90;;;14.68;100.00;100789.25;4136678;28;20445;-68
2021/06/28 07:13:13;;;;;;;5.60;2.70;;;15.20;99.90;;;14.75;100.00;100790.19;4136488;28;20026;-68
2021/06/28 07:15:16;;;;;;;4.03;2.53;;;15.20;99.90;;;14.80;100.00;100792.28;4136299;28;20033;-68
2021/06/28 07:17:17;;;;;;;5.15;3.22;;;15.30;99.90;;;14.87;100.00;100803.81;4135044;28;20525;-67
2021/06/28 07:19:18;;;;;;;3.38;2.10;;;15.30;99.90;;;14.92;100.00;100807.59;4135155;28;20041;-67
2021/06/28 07:21:19;;;;;;;3.72;2.30;;;15.50;99.90;;;14.92;100.00;100801.44;4135148;28;20061;-68
2021/06/28 07:23:20;;;;;;;6.65;2.97;;;15.50;99.90;;;15.00;100.00;100809.31;4136066;28;20034;-67
2021/06/28 07:25:23;;;;;;;4.53;3.00;;;15.60;99.90;;;15.07;100.00;100823.53;4135188;28;20041;-68
2021/06/28 07:27:24;;;;;;;7.00;3.80;;;15.70;99.90;;;15.03;100.00;100811.59;4136244;28;20057;-68
2021/06/28 07:29:25;;;;;;;6.90;2.90;;;15.70;99.90;;;15.00;100.00;100824.41;4134954;28;20034;-67
2021/06/28 07:31:26;;;;;;;8.63;3.75;;;15.70;99.90;;;14.98;100.00;100815.81;4136015;28;20034;-68
2021/06/28 07:33:29;;;;;;;4.30;2.67;;;15.70;99.90;;;15.15;100.00;100822.59;4135053;28;20054;-67
2021/06/28 07:35:30;;;;;;;3.20;2.60;;;15.70;99.90;;;15.11;100.00;100805.38;4136088;28;20493;-67
2021/06/28 07:37:32;;;;;;;3.30;2.30;;;15.80;99.90;;;15.04;100.00;100807.94;4136054;28;20105;-67
2021/06/28 07:39:33;;;;;;;3.53;2.40;;;15.80;99.90;;;15.15;100.00;100820.75;4134686;28;20062;-68
2021/06/28 07:41:34;;;;;;;3.53;2.85;;;15.80;99.90;;;15.14;100.00;100824.41;4135844;28;20042;-67
2021/06/28 07:43:36;;;;;;;7.43;3.20;;;15.70;99.90;;;15.14;100.00;100816.44;4135847;28;20379;-67
2021/06/28 07:45:37;;;;;;;3.45;2.88;;;15.70;99.90;;;15.12;100.00;100822.97;4135978;28;20074;-67
2021/06/28 07:47:38;;;;;;;6.25;3.75;;;15.70;99.90;;;15.07;100.00;100814.72;4135466;28;20085;-68
2021/06/28 07:49:39;;;;;;;4.22;2.83;;;15.60;99.90;;;15.07;100.00;100814.72;4135963;28;20078;-67
2021/06/28 07:51:40;;;;;;;4.60;3.38;;;15.50;99.90;;;15.05;100.00;100817.56;4135838;28;20054;-67
2021/06/28 07:53:41;;;;;;;3.58;2.78;;;15.50;99.90;;;14.99;100.00;100820.97;4135315;28;20492;-67
2021/06/28 07:55:44;;;;;;;5.10;3.17;;;15.50;99.90;;;15.00;100.00;100813.78;4135736;28;20034;-67
2021/06/28 07:57:45;;;;;;;4.53;3.17;;;15.50;99.90;;;15.02;100.00;100812.63;4135956;28;20110;-67
2021/06/28 07:59:46;;;;;;;4.85;2.55;;;15.40;99.90;;;14.99;100.00;100810.34;4135891;28;20429;-67
2021/06/28 08:01:47;;;;;;;4.65;3.03;;;15.50;99.90;;;14.98;100.00;100806.03;4135421;28;20050;-67
2021/06/28 08:03:48;;;;;;;3.33;3.00;;;15.40;99.90;;;14.90;100.00;100804.25;4135610;28;20027;-67
2021/06/28 08:05:49;;;;;;;5.93;3.05;;;15.40;99.90;;;14.92;100.00;100814.72;4135758;28;20409;-67
2021/06/28 08:07:50;;;;;;;5.00;2.55;;;15.40;99.90;;;14.88;100.00;100819.56;4135586;28;20026;-67
2021/06/28 08:09:51;;;;;;;8.10;3.50;;;15.30;99.90;;;14.83;100.00;100824.59;4135652;28;20034;-67
2021/06/28 08:11:56;;;;;;;4.97;3.53;;;15.30;99.90;;;14.84;100.00;100830.75;4135574;28;20106;-67
2021/06/28 08:13:57;;;;;;;3.33;2.92;;;15.30;99.90;;;14.89;100.00;100826.53;4134798;28;20030;-67
2021/06/28 08:15:58;;;;;;;6.68;3.17;;;15.30;99.90;;;14.98;100.00;100827.28;4135358;28;20029;-68
2021/06/28 08:17:59;;;;;;;4.40;2.60;;;15.30;99.90;;;14.92;100.00;100822.69;4135662;28;20065;-67
2021/06/28 08:20:01;;;;;;;3.90;2.40;;;15.40;99.90;;;14.99;100.00;100823.63;4134283;28;20033;-67
2021/06/28 08:22:02;;;;;;;5.47;3.03;;;15.40;99.90;;;15.27;100.00;100821.94;4150700;28;20040;-68